sensor_id;sensor_type;location;lat;lon;timestamp;pressure;altitude;pressure_sealevel;temperature;humidity
45864;BME280;31579;52.354;16.974;2023-06-22T00:00:48;489.6;;;-146.1;100.0
45864;BME280;31579;52.354;16.974;2023-06-22T00:01:52;490.9;;;-146.1;100.0
45864;BME280;31579;52.354;16.974;2023-06-22T00:02:56;492.3;;;-146.1;100.0
45864;BME280;31579;52.354;16.974;2023-06-22T00:04:00;494.3;;;-146.1;100.0
45864;BME280;31579;52.354;16.974;2023-06-22T00:05:03;497.9;;;-146.1;100.0
45864;BME280;31579;52.354;16.974;2023-06-22T00:06:07;498.4;;;-146.1;100.0
45864;BME280;31579;52.354;16.974;2023-06-22T00:07:11;499.7;;;-146.1;100.0
45864;BME280;31579;52.354;16.974;2023-06-22T00:08:15;501.0;;;-146.1;100.0
45864;BME280;31579;52.354;16.974;2023-06-22T00:09:19;501.8;;;-146.1;100.0
45864;BME280;31579;52.354;16.974;2023-06-22T00:10:23;502.4;;;-146.1;100.0
45864;BME280;31579;52.354;16.974;2023-06-22T00:11:27;502.9;;;-146.1;100.0
45864;BME280;31579;52.354;16.974;2023-06-22T00:12:31;503.4;;;-146.1;100.0
45864;BME280;31579;52.354;16.974;2023-06-22T00:13:35;503.5;;;-146.1;100.0
45864;BME280;31579;52.354;16.974;2023-06-22T00:14:39;503.0;;;-146.1;100.0
45864;BME280;31579;52.354;16.974;2023-06-22T00:15:43;502.5;;;-146.1;100.0
45864;BME280;31579;52.354;16.974;2023-06-22T00:16:48;501.9;;;-146.1;100.0
45864;BME280;31579;52.354;16.974;2023-06-22T00:17:52;501.5;;;-146.1;100.0
45864;BME280;31579;52.354;16.974;2023-06-22T00:18:56;501.1;;;-146.1;100.0
45864;BME280;31579;52.354;16.974;2023-06-22T00:20:00;500.4;;;-146.1;100.0
45864;BME280;31579;52.354;16.974;2023-06-22T00:21:03;501.5;;;-146.1;100.0
45864;BME280;31579;52.354;16.974;2023-06-22T00:22:07;499.3;;;-146.1;100.0
45864;BME280;31579;52.354;16.974;2023-06-22T00:23:11;499.0;;;-146.1;100.0
45864;BME280;31579;52.354;16.974;2023-06-22T00:24:15;498.6;;;-146.1;100.0
45864;BME280;31579;52.354;16.974;2023-06-22T00:25:19;498.1;;;-146.1;100.0
45864;BME280;31579;52.354;16.974;2023-06-22T00:26:23;498.2;;;-146.1;100.0
45864;BME280;31579;52.354;16.974;2023-06-22T00:27:27;498.5;;;-146.1;100.0
45864;BME280;31579;52.354;16.974;2023-06-22T00:28:31;498.6;;;-146.1;100.0
45864;BME280;31579;52.354;16.974;2023-06-22T00:29:35;498.4;;;-146.1;100.0
45864;BME280;31579;52.354;16.974;2023-06-22T00:30:39;497.6;;;-146.1;100.0
45864;BME280;31579;52.354;16.974;2023-06-22T00:31:44;496.5;;;-146.1;100.0
45864;BME280;31579;52.354;16.974;2023-06-22T00:32:48;496.1;;;-146.1;100.0
45864;BME280;31579;52.354;16.974;2023-06-22T00:33:53;495.6;;;-146.1;100.0
45864;BME280;31579;52.354;16.974;2023-06-22T00:34:57;495.1;;;-146.1;100.0
45864;BME280;31579;52.354;16.974;2023-06-22T00:36:01;494.7;;;-146.1;100.0
45864;BME280;31579;52.354;16.974;2023-06-22T00:37:05;494.4;;;-146.1;100.0
45864;BME280;31579;52.354;16.974;2023-06-22T00:38:09;493.9;;;-146.1;100.0
45864;BME280;31579;52.354;16.974;2023-06-22T00:39:13;494.0;;;-146.1;100.0
45864;BME280;31579;52.354;16.974;2023-06-22T00:40:17;494.0;;;-146.1;100.0
45864;BME280;31579;52.354;16.974;2023-06-22T00:41:21;493.8;;;-146.1;100.0
45864;BME280;31579;52.354;16.974;2023-06-22T00:42:25;493.7;;;-146.1;100.0
45864;BME280;31579;52.354;16.974;2023-06-22T00:43:29;494.2;;;-146.1;100.0
45864;BME280;31579;52.354;16.974;2023-06-22T00:44:33;493.9;;;-146.1;100.0
45864;BME280;31579;52.354;16.974;2023-06-22T00:45:37;493.8;;;-146.1;100.0
45864;BME280;31579;52.354;16.974;2023-06-22T00:46:41;493.3;;;-146.1;100.0
45864;BME280;31579;52.354;16.974;2023-06-22T00:47:45;492.4;;;-146.1;100.0
45864;BME280;31579;52.354;16.974;2023-06-22T00:48:50;492.1;;;-146.1;100.0
45864;BME280;31579;52.354;16.974;2023-06-22T00:49:53;492.6;;;-146.1;100.0
45864;BME280;31579;52.354;16.974;2023-06-22T00:50:57;493.6;;;-146.1;100.0
45864;BME280;31579;52.354;16.974;2023-06-22T00:52:01;494.3;;;-146.1;100.0
45864;BME280;31579;52.354;16.974;2023-06-22T00:53:06;494.1;;;-146.1;100.0
45864;BME280;31579;52.354;16.974;2023-06-22T00:54:09;494.0;;;-146.1;100.0
45864;BME280;31579;52.354;16.974;2023-06-22T00:55:13;494.4;;;-146.1;100.0
45864;BME280;31579;52.354;16.974;2023-06-22T00:56:17;495.3;;;-146.1;100.0
45864;BME280;31579;52.354;16.974;2023-06-22T00:57:21;496.2;;;-146.1;100.0
45864;BME280;31579;52.354;16.974;2023-06-22T00:58:25;495.9;;;-146.1;100.0
45864;BME280;31579;52.354;16.974;2023-06-22T00:59:29;494.8;;;-146.1;100.0
45864;BME280;31579;52.354;16.974;2023-06-22T01:00:33;493.7;;;-146.1;100.0
45864;BME280;31579;52.354;16.974;2023-06-22T01:01:37;493.2;;;-146.1;100.0
45864;BME280;31579;52.354;16.974;2023-06-22T01:02:43;493.3;;;-146.1;100.0
45864;BME280;31579;52.354;16.974;2023-06-22T01:03:45;493.3;;;-146.1;100.0
45864;BME280;31579;52.354;16.974;2023-06-22T01:04:49;492.9;;;-146.1;100.0
45864;BME280;31579;52.354;16.974;2023-06-22T01:05:54;492.1;;;-146.1;100.0
45864;BME280;31579;52.354;16.974;2023-06-22T01:06:59;490.8;;;-146.1;100.0
45864;BME280;31579;52.354;16.974;2023-06-22T01:08:08;489.7;;;-146.1;100.0
45864;BME280;31579;52.354;16.974;2023-06-22T01:09:09;489.2;;;-146.1;100.0
45864;BME280;31579;52.354;16.974;2023-06-22T01:10:14;489.1;;;-146.1;100.0
45864;BME280;31579;52.354;16.974;2023-06-22T01:12:17;487.8;;;-146.1;100.0
45864;BME280;31579;52.354;16.974;2023-06-22T01:16:34;484.8;;;-146.1;100.0
45864;BME280;31579;52.354;16.974;2023-06-22T01:17:38;484.7;;;-146.1;100.0
45864;BME280;31579;52.354;16.974;2023-06-22T01:18:42;484.2;;;-146.1;100.0
45864;BME280;31579;52.354;16.974;2023-06-22T01:19:46;483.4;;;-146.1;100.0
45864;BME280;31579;52.354;16.974;2023-06-22T01:20:50;483.1;;;-146.1;100.0
45864;BME280;31579;52.354;16.974;2023-06-22T01:21:54;482.7;;;-146.1;100.0
45864;BME280;31579;52.354;16.974;2023-06-22T01:25:11;482.5;;;-146.1;100.0
45864;BME280;31579;52.354;16.974;2023-06-22T01:29:33;483.6;;;-146.1;100.0
45864;BME280;31579;52.354;16.974;2023-06-22T01:30:37;483.4;;;-146.1;100.0
45864;BME280;31579;52.354;16.974;2023-06-22T01:31:41;484.3;;;-146.1;100.0
45864;BME280;31579;52.354;16.974;2023-06-22T01:32:45;484.9;;;-146.1;100.0
45864;BME280;31579;52.354;16.974;2023-06-22T01:33:51;484.3;;;-146.1;100.0
45864;BME280;31579;52.354;16.974;2023-06-22T01:34:53;483.8;;;-146.1;100.0
45864;BME280;31579;52.354;16.974;2023-06-22T01:35:57;483.7;;;-146.1;100.0
45864;BME280;31579;52.354;16.974;2023-06-22T01:37:01;483.0;;;-146.1;100.0
45864;BME280;31579;52.354;16.974;2023-06-22T01:38:05;482.3;;;-146.1;100.0
45864;BME280;31579;52.354;16.974;2023-06-22T01:39:09;481.5;;;-146.1;100.0
45864;BME280;31579;52.354;16.974;2023-06-22T01:40:13;480.9;;;-146.1;100.0
45864;BME280;31579;52.354;16.974;2023-06-22T01:41:17;480.5;;;-146.1;100.0
45864;BME280;31579;52.354;16.974;2023-06-22T01:42:22;479.2;;;-146.1;100.0
45864;BME280;31579;52.354;16.974;2023-06-22T01:43:25;478.1;;;-146.1;100.0
45864;BME280;31579;52.354;16.974;2023-06-22T01:44:29;478.5;;;-146.1;100.0
45864;BME280;31579;52.354;16.974;2023-06-22T01:45:33;480.0;;;-146.1;100.0
45864;BME280;31579;52.354;16.974;2023-06-22T01:46:37;481.7;;;-146.1;100.0
45864;BME280;31579;52.354;16.974;2023-06-22T01:47:41;483.4;;;-146.1;100.0
45864;BME280;31579;52.354;16.974;2023-06-22T01:48:45;484.8;;;-146.1;100.0
45864;BME280;31579;52.354;16.974;2023-06-22T01:49:49;485.6;;;-146.1;100.0
45864;BME280;31579;52.354;16.974;2023-06-22T01:50:53;485.6;;;-146.1;100.0
45864;BME280;31579;52.354;16.974;2023-06-22T01:51:57;485.3;;;-146.1;100.0
45864;BME280;31579;52.354;16.974;2023-06-22T01:53:01;484.8;;;-146.1;100.0
45864;BME280;31579;52.354;16.974;2023-06-22T01:54:05;484.1;;;-146.1;100.0
45864;BME280;31579;52.354;16.974;2023-06-22T01:55:09;484.1;;;-146.1;100.0
45864;BME280;31579;52.354;16.974;2023-06-22T01:56:14;484.0;;;-146.1;100.0
45864;BME280;31579;52.354;16.974;2023-06-22T01:57:17;484.5;;;-146.1;100.0
45864;BME280;31579;52.354;16.974;2023-06-22T01:58:21;484.9;;;-146.1;100.0
45864;BME280;31579;52.354;16.974;2023-06-22T01:59:25;485.2;;;-146.1;100.0
45864;BME280;31579;52.354;16.974;2023-06-22T02:00:31;485.5;;;-146.1;100.0
45864;BME280;31579;52.354;16.974;2023-06-22T02:01:36;486.0;;;-146.1;100.0
45864;BME280;31579;52.354;16.974;2023-06-22T02:02:39;487.0;;;-146.1;100.0
45864;BME280;31579;52.354;16.974;2023-06-22T02:03:41;487.6;;;-146.1;100.0
45864;BME280;31579;52.354;16.974;2023-06-22T02:04:47;487.6;;;-146.1;100.0
45864;BME280;31579;52.354;16.974;2023-06-22T02:05:50;487.3;;;-146.1;100.0
45864;BME280;31579;52.354;16.974;2023-06-22T02:06:55;486.6;;;-146.1;100.0
45864;BME280;31579;52.354;16.974;2023-06-22T02:08:00;485.5;;;-146.1;100.0
45864;BME280;31579;52.354;16.974;2023-06-22T02:09:02;484.4;;;-146.1;100.0
45864;BME280;31579;52.354;16.974;2023-06-22T02:10:05;483.6;;;-146.1;100.0
45864;BME280;31579;52.354;16.974;2023-06-22T02:11:09;483.6;;;-146.1;100.0
45864;BME280;31579;52.354;16.974;2023-06-22T02:12:13;484.3;;;-146.1;100.0
45864;BME280;31579;52.354;16.974;2023-06-22T02:13:17;484.6;;;-146.1;100.0
45864;BME280;31579;52.354;16.974;2023-06-22T02:14:21;485.0;;;-146.1;100.0
45864;BME280;31579;52.354;16.974;2023-06-22T02:15:25;485.3;;;-146.1;100.0
45864;BME280;31579;52.354;16.974;2023-06-22T02:16:30;485.4;;;-146.1;100.0
45864;BME280;31579;52.354;16.974;2023-06-22T02:17:33;486.1;;;-146.1;100.0
45864;BME280;31579;52.354;16.974;2023-06-22T02:18:37;487.2;;;-146.1;100.0
45864;BME280;31579;52.354;16.974;2023-06-22T02:19:41;488.4;;;-146.1;100.0
45864;BME280;31579;52.354;16.974;2023-06-22T02:20:45;489.5;;;-146.1;100.0
45864;BME280;31579;52.354;16.974;2023-06-22T02:21:49;490.0;;;-146.1;100.0
45864;BME280;31579;52.354;16.974;2023-06-22T02:22:53;490.3;;;-146.1;100.0
45864;BME280;31579;52.354;16.974;2023-06-22T02:23:57;490.4;;;-146.1;100.0
45864;BME280;31579;52.354;16.974;2023-06-22T02:25:00;492.6;;;-146.1;100.0
45864;BME280;31579;52.354;16.974;2023-06-22T02:26:03;491.6;;;-146.1;100.0
45864;BME280;31579;52.354;16.974;2023-06-22T02:27:07;489.8;;;-146.1;100.0
45864;BME280;31579;52.354;16.974;2023-06-22T02:28:11;489.8;;;-146.1;100.0
45864;BME280;31579;52.354;16.974;2023-06-22T02:29:15;490.2;;;-146.1;100.0
45864;BME280;31579;52.354;16.974;2023-06-22T02:30:26;485.7;;;-146.1;100.0
45864;BME280;31579;52.354;16.974;2023-06-22T02:31:30;490.3;;;-146.1;100.0
45864;BME280;31579;52.354;16.974;2023-06-22T02:32:34;491.4;;;-146.1;100.0
45864;BME280;31579;52.354;16.974;2023-06-22T02:33:38;492.1;;;-146.1;100.0
45864;BME280;31579;52.354;16.974;2023-06-22T02:34:42;492.5;;;-146.1;100.0
45864;BME280;31579;52.354;16.974;2023-06-22T02:35:36;492.0;;;-146.1;100.0
45864;BME280;31579;52.354;16.974;2023-06-22T02:36:40;493.4;;;-146.1;100.0
45864;BME280;31579;52.354;16.974;2023-06-22T02:37:44;493.7;;;-146.1;100.0
45864;BME280;31579;52.354;16.974;2023-06-22T02:38:48;493.9;;;-146.1;100.0
45864;BME280;31579;52.354;16.974;2023-06-22T02:39:52;493.9;;;-146.1;100.0
45864;BME280;31579;52.354;16.974;2023-06-22T02:40:56;494.0;;;-146.1;100.0
45864;BME280;31579;52.354;16.974;2023-06-22T02:42:00;494.2;;;-146.1;100.0
45864;BME280;31579;52.354;16.974;2023-06-22T02:43:05;494.5;;;-146.1;100.0
45864;BME280;31579;52.354;16.974;2023-06-22T02:44:09;494.7;;;-146.1;100.0
45864;BME280;31579;52.354;16.974;2023-06-22T02:45:13;495.2;;;-146.1;100.0
45864;BME280;31579;52.354;16.974;2023-06-22T02:46:17;495.5;;;-146.1;100.0
45864;BME280;31579;52.354;16.974;2023-06-22T02:47:21;495.7;;;-146.1;100.0
45864;BME280;31579;52.354;16.974;2023-06-22T02:48:25;495.9;;;-146.1;100.0
45864;BME280;31579;52.354;16.974;2023-06-22T02:49:29;496.1;;;-146.1;100.0
45864;BME280;31579;52.354;16.974;2023-06-22T02:50:31;499.0;;;-146.1;100.0
45864;BME280;31579;52.354;16.974;2023-06-22T02:51:45;496.6;;;-146.1;100.0
45864;BME280;31579;52.354;16.974;2023-06-22T02:52:40;496.6;;;-146.1;100.0
45864;BME280;31579;52.354;16.974;2023-06-22T02:53:44;496.6;;;-146.1;100.0
45864;BME280;31579;52.354;16.974;2023-06-22T02:54:48;496.8;;;-146.1;100.0
45864;BME280;31579;52.354;16.974;2023-06-22T02:55:52;497.3;;;-146.1;100.0
45864;BME280;31579;52.354;16.974;2023-06-22T02:56:57;497.6;;;-146.1;100.0
45864;BME280;31579;52.354;16.974;2023-06-22T02:58:00;498.1;;;-146.1;100.0
45864;BME280;31579;52.354;16.974;2023-06-22T02:59:03;499.9;;;-146.1;100.0
45864;BME280;31579;52.354;16.974;2023-06-22T03:00:08;498.5;;;-146.1;100.0
45864;BME280;31579;52.354;16.974;2023-06-22T03:01:11;498.8;;;-146.1;100.0
45864;BME280;31579;52.354;16.974;2023-06-22T03:02:15;499.1;;;-146.1;100.0
45864;BME280;31579;52.354;16.974;2023-06-22T03:03:19;499.3;;;-146.1;100.0
45864;BME280;31579;52.354;16.974;2023-06-22T03:04:23;499.2;;;-146.1;100.0
45864;BME280;31579;52.354;16.974;2023-06-22T03:05:27;499.4;;;-146.1;100.0
45864;BME280;31579;52.354;16.974;2023-06-22T03:06:30;501.0;;;-146.1;100.0
45864;BME280;31579;52.354;16.974;2023-06-22T03:07:33;502.2;;;-146.1;100.0
45864;BME280;31579;52.354;16.974;2023-06-22T03:08:36;499.5;;;-146.1;100.0
45864;BME280;31579;52.354;16.974;2023-06-22T03:09:40;499.1;;;-146.1;100.0
45864;BME280;31579;52.354;16.974;2023-06-22T03:10:44;498.5;;;-146.1;100.0
45864;BME280;31579;52.354;16.974;2023-06-22T03:11:49;498.0;;;-146.1;100.0
45864;BME280;31579;52.354;16.974;2023-06-22T03:12:52;497.4;;;-146.1;100.0
45864;BME280;31579;52.354;16.974;2023-06-22T03:13:56;496.9;;;-146.1;100.0
45864;BME280;31579;52.354;16.974;2023-06-22T03:15:00;496.3;;;-146.1;100.0
45864;BME280;31579;52.354;16.974;2023-06-22T03:16:05;495.9;;;-146.1;100.0
45864;BME280;31579;52.354;16.974;2023-06-22T03:17:09;495.2;;;-146.1;100.0
45864;BME280;31579;52.354;16.974;2023-06-22T03:18:13;494.8;;;-146.1;100.0
45864;BME280;31579;52.354;16.974;2023-06-22T03:19:17;494.4;;;-146.1;100.0
45864;BME280;31579;52.354;16.974;2023-06-22T03:20:21;494.4;;;-146.1;100.0
45864;BME280;31579;52.354;16.974;2023-06-22T03:21:27;493.9;;;-146.1;100.0
45864;BME280;31579;52.354;16.974;2023-06-22T03:22:29;493.2;;;-146.1;100.0
45864;BME280;31579;52.354;16.974;2023-06-22T03:23:33;492.7;;;-146.1;100.0
45864;BME280;31579;52.354;16.974;2023-06-22T03:24:38;492.0;;;-146.1;100.0
45864;BME280;31579;52.354;16.974;2023-06-22T03:25:42;491.3;;;-146.1;100.0
45864;BME280;31579;52.354;16.974;2023-06-22T03:26:46;490.8;;;-146.1;100.0
45864;BME280;31579;52.354;16.974;2023-06-22T03:27:50;490.2;;;-146.1;100.0
45864;BME280;31579;52.354;16.974;2023-06-22T03:28:54;489.6;;;-146.1;100.0
45864;BME280;31579;52.354;16.974;2023-06-22T03:29:58;489.0;;;-146.1;100.0
45864;BME280;31579;52.354;16.974;2023-06-22T03:31:00;491.5;;;-146.1;100.0
45864;BME280;31579;52.354;16.974;2023-06-22T03:32:05;487.9;;;-146.1;100.0
45864;BME280;31579;52.354;16.974;2023-06-22T03:33:09;487.3;;;-146.1;100.0
45864;BME280;31579;52.354;16.974;2023-06-22T03:34:13;486.8;;;-146.1;100.0
45864;BME280;31579;52.354;16.974;2023-06-22T03:35:17;486.1;;;-146.1;100.0
45864;BME280;31579;52.354;16.974;2023-06-22T03:36:21;486.0;;;-146.1;100.0
45864;BME280;31579;52.354;16.974;2023-06-22T03:37:26;485.6;;;-146.1;100.0
45864;BME280;31579;52.354;16.974;2023-06-22T03:38:29;484.4;;;-146.1;100.0
45864;BME280;31579;52.354;16.974;2023-06-22T03:39:33;483.6;;;-146.1;100.0
45864;BME280;31579;52.354;16.974;2023-06-22T03:40:44;480.9;;;-146.1;100.0
45864;BME280;31579;52.354;16.974;2023-06-22T03:41:48;481.9;;;-146.1;100.0
45864;BME280;31579;52.354;16.974;2023-06-22T03:42:52;481.4;;;-146.1;100.0
45864;BME280;31579;52.354;16.974;2023-06-22T03:43:56;480.0;;;-146.1;100.0
45864;BME280;31579;52.354;16.974;2023-06-22T03:45:00;479.2;;;-146.1;100.0
45864;BME280;31579;52.354;16.974;2023-06-22T03:46:19;476.1;;;-146.1;100.0
45864;BME280;31579;52.354;16.974;2023-06-22T03:47:23;477.2;;;-146.1;100.0
45864;BME280;31579;52.354;16.974;2023-06-22T03:48:29;476.8;;;-146.1;100.0
45864;BME280;31579;52.354;16.974;2023-06-22T03:49:32;476.2;;;-146.1;100.0
45864;BME280;31579;52.354;16.974;2023-06-22T03:50:36;475.7;;;-146.1;100.0
45864;BME280;31579;52.354;16.974;2023-06-22T03:51:40;475.9;;;-146.1;100.0
45864;BME280;31579;52.354;16.974;2023-06-22T03:52:44;475.4;;;-146.1;100.0
45864;BME280;31579;52.354;16.974;2023-06-22T03:53:49;474.4;;;-146.1;100.0
45864;BME280;31579;52.354;16.974;2023-06-22T03:54:52;474.0;;;-146.1;100.0
45864;BME280;31579;52.354;16.974;2023-06-22T03:55:56;473.7;;;-146.1;100.0
45864;BME280;31579;52.354;16.974;2023-06-22T03:57:03;473.0;;;-146.1;100.0
45864;BME280;31579;52.354;16.974;2023-06-22T03:58:04;473.6;;;-146.1;100.0
45864;BME280;31579;52.354;16.974;2023-06-22T03:59:08;473.5;;;-146.1;100.0
45864;BME280;31579;52.354;16.974;2023-06-22T04:00:12;472.7;;;-146.1;100.0
45864;BME280;31579;52.354;16.974;2023-06-22T04:01:15;475.6;;;-146.1;100.0
45864;BME280;31579;52.354;16.974;2023-06-22T04:02:19;471.8;;;-146.1;100.0
45864;BME280;31579;52.354;16.974;2023-06-22T04:03:23;470.8;;;-146.1;100.0
45864;BME280;31579;52.354;16.974;2023-06-22T04:04:27;470.6;;;-146.1;100.0
45864;BME280;31579;52.354;16.974;2023-06-22T04:05:31;470.2;;;-146.1;100.0
45864;BME280;31579;52.354;16.974;2023-06-22T04:06:35;470.2;;;-146.1;100.0
45864;BME280;31579;52.354;16.974;2023-06-22T04:07:39;468.9;;;-146.1;100.0
45864;BME280;31579;52.354;16.974;2023-06-22T04:08:44;467.8;;;-146.1;100.0
45864;BME280;31579;52.354;16.974;2023-06-22T04:09:47;464.8;;;-146.1;100.0
45864;BME280;31579;52.354;16.974;2023-06-22T04:10:51;463.6;;;-146.1;100.0
45864;BME280;31579;52.354;16.974;2023-06-22T04:11:55;462.9;;;-146.1;100.0
45864;BME280;31579;52.354;16.974;2023-06-22T04:13:00;461.5;;;-146.1;100.0
45864;BME280;31579;52.354;16.974;2023-06-22T04:14:04;461.5;;;-146.1;100.0
45864;BME280;31579;52.354;16.974;2023-06-22T04:15:08;460.1;;;-146.1;100.0
45864;BME280;31579;52.354;16.974;2023-06-22T04:16:12;459.0;;;-146.1;100.0
45864;BME280;31579;52.354;16.974;2023-06-22T04:17:14;461.2;;;-146.1;100.0
45864;BME280;31579;52.354;16.974;2023-06-22T04:18:19;456.3;;;-146.1;100.0
45864;BME280;31579;52.354;16.974;2023-06-22T04:19:23;454.8;;;-146.1;100.0
45864;BME280;31579;52.354;16.974;2023-06-22T04:20:27;453.8;;;-146.1;100.0
45864;BME280;31579;52.354;16.974;2023-06-22T04:21:31;452.7;;;-146.1;100.0
45864;BME280;31579;52.354;16.974;2023-06-22T04:22:35;451.7;;;-146.1;100.0
45864;BME280;31579;52.354;16.974;2023-06-22T04:23:39;450.9;;;-146.1;100.0
45864;BME280;31579;52.354;16.974;2023-06-22T04:24:43;449.8;;;-146.1;100.0
45864;BME280;31579;52.354;16.974;2023-06-22T04:25:47;448.4;;;-146.1;100.0
45864;BME280;31579;52.354;16.974;2023-06-22T04:26:52;446.4;;;-146.1;100.0
45864;BME280;31579;52.354;16.974;2023-06-22T04:27:56;447.1;;;-146.1;100.0
45864;BME280;31579;52.354;16.974;2023-06-22T04:29:01;446.6;;;-146.1;100.0
45864;BME280;31579;52.354;16.974;2023-06-22T04:30:06;443.6;;;-146.1;100.0
45864;BME280;31579;52.354;16.974;2023-06-22T04:31:10;441.2;;;-146.1;100.0
45864;BME280;31579;52.354;16.974;2023-06-22T04:32:14;438.2;;;-146.1;100.0
45864;BME280;31579;52.354;16.974;2023-06-22T04:33:17;438.4;;;-146.1;100.0
45864;BME280;31579;52.354;16.974;2023-06-22T04:34:20;432.3;;;-146.1;100.0
45864;BME280;31579;52.354;16.974;2023-06-22T04:35:24;430.7;;;-146.1;100.0
45864;BME280;31579;52.354;16.974;2023-06-22T04:36:28;427.1;;;-146.1;100.0
45864;BME280;31579;52.354;16.974;2023-06-22T04:37:34;423.2;;;-146.1;100.0
45864;BME280;31579;52.354;16.974;2023-06-22T04:38:36;423.0;;;-146.1;100.0
45864;BME280;31579;52.354;16.974;2023-06-22T04:39:40;422.7;;;-146.1;100.0
45864;BME280;31579;52.354;16.974;2023-06-22T04:40:44;420.2;;;-146.1;100.0
45864;BME280;31579;52.354;16.974;2023-06-22T04:42:52;413.8;;;-146.1;100.0
45864;BME280;31579;52.354;16.974;2023-06-22T04:43:56;413.7;;;-146.1;100.0
45864;BME280;31579;52.354;16.974;2023-06-22T04:45:00;411.9;;;-146.1;100.0
45864;BME280;31579;52.354;16.974;2023-06-22T04:46:04;409.6;;;-146.1;100.0
45864;BME280;31579;52.354;16.974;2023-06-22T04:47:08;405.1;;;-146.1;100.0
45864;BME280;31579;52.354;16.974;2023-06-22T04:48:12;399.8;;;-146.1;100.0
45864;BME280;31579;52.354;16.974;2023-06-22T04:49:14;402.8;;;-146.1;100.0
45864;BME280;31579;52.354;16.974;2023-06-22T04:50:19;393.2;;;-146.1;100.0
45864;BME280;31579;52.354;16.974;2023-06-22T04:51:23;388.5;;;-146.1;100.0
45864;BME280;31579;52.354;16.974;2023-06-22T04:52:27;385.4;;;-146.1;100.0
45864;BME280;31579;52.354;16.974;2023-06-22T04:53:32;378.1;;;-146.1;100.0
45864;BME280;31579;52.354;16.974;2023-06-22T04:54:36;376.8;;;-146.1;100.0
45864;BME280;31579;52.354;16.974;2023-06-22T04:55:40;371.0;;;-146.1;100.0
45864;BME280;31579;52.354;16.974;2023-06-22T04:56:44;367.0;;;-146.1;100.0
45864;BME280;31579;52.354;16.974;2023-06-22T04:57:48;355.5;;;-146.1;100.0
45864;BME280;31579;52.354;16.974;2023-06-22T04:58:52;351.3;;;-146.1;100.0
45864;BME280;31579;52.354;16.974;2023-06-22T04:59:56;342.2;;;-146.1;100.0
45864;BME280;31579;52.354;16.974;2023-06-22T05:01:08;331.4;;;-146.1;100.0
45864;BME280;31579;52.354;16.974;2023-06-22T05:02:12;342.6;;;-146.1;100.0
45864;BME280;31579;52.354;16.974;2023-06-22T05:03:17;339.1;;;-146.1;100.0
45864;BME280;31579;52.354;16.974;2023-06-22T05:04:22;337.0;;;-146.1;100.0
45864;BME280;31579;52.354;16.974;2023-06-22T05:05:25;333.4;;;-146.1;100.0
45864;BME280;31579;52.354;16.974;2023-06-22T05:06:29;332.9;;;-146.1;100.0
45864;BME280;31579;52.354;16.974;2023-06-22T05:07:43;322.2;;;-146.1;100.0
45864;BME280;31579;52.354;16.974;2023-06-22T05:08:37;310.1;;;-146.1;100.0
45864;BME280;31579;52.354;16.974;2023-06-22T05:09:41;288.7;;;-146.1;100.0
45864;BME280;31579;52.354;16.974;2023-06-22T05:10:46;263.6;;;-146.1;100.0
45864;BME280;31579;52.354;16.974;2023-06-22T05:11:50;248.2;;;-146.1;100.0
45864;BME280;31579;52.354;16.974;2023-06-22T05:12:54;218.9;;;-146.1;100.0
45864;BME280;31579;52.354;16.974;2023-06-22T05:13:58;200.8;;;-146.1;100.0
45864;BME280;31579;52.354;16.974;2023-06-22T05:15:02;162.9;;;-146.1;100.0
45864;BME280;31579;52.354;16.974;2023-06-22T05:16:06;128.7;;;-146.1;100.0
45864;BME280;31579;52.354;16.974;2023-06-22T05:17:10;107.8;;;-146.1;100.0
45864;BME280;31579;52.354;16.974;2023-06-22T05:18:14;92.1;;;-146.1;100.0
45864;BME280;31579;52.354;16.974;2023-06-22T05:19:18;121.6;;;-146.1;100.0
45864;BME280;31579;52.354;16.974;2023-06-22T05:20:22;217.7;;;-146.1;100.0
45864;BME280;31579;52.354;16.974;2023-06-22T05:21:26;464.6;;;-146.1;100.0
45864;BME280;31579;52.354;16.974;2023-06-22T05:22:30;685.1;;;-146.1;100.0
45864;BME280;31579;52.354;16.974;2023-06-22T05:23:34;1167.9;;;-146.1;100.0
45864;BME280;31579;52.354;16.974;2023-06-22T05:24:38;1165.5;;;-146.1;100.0
45864;BME280;31579;52.354;16.974;2023-06-22T05:25:42;1162.2;;;-146.1;100.0
45864;BME280;31579;52.354;16.974;2023-06-22T05:26:46;1159.2;;;-146.1;100.0
45864;BME280;31579;52.354;16.974;2023-06-22T05:27:50;1152.9;;;-146.1;100.0
45864;BME280;31579;52.354;16.974;2023-06-22T05:28:54;1145.3;;;-146.1;100.0
45864;BME280;31579;52.354;16.974;2023-06-22T05:30:06;1138.3;;;-146.1;100.0
45864;BME280;31579;52.354;16.974;2023-06-22T05:31:09;1139.6;;;-146.1;100.0
45864;BME280;31579;52.354;16.974;2023-06-22T05:32:13;1137.9;;;-146.1;100.0
45864;BME280;31579;52.354;16.974;2023-06-22T05:33:17;1130.5;;;-146.1;100.0
45864;BME280;31579;52.354;16.974;2023-06-22T05:34:21;1123.6;;;-146.1;100.0
45864;BME280;31579;52.354;16.974;2023-06-22T05:35:25;1120.3;;;-146.1;100.0
45864;BME280;31579;52.354;16.974;2023-06-22T05:36:29;1120.3;;;-146.1;100.0
45864;BME280;31579;52.354;16.974;2023-06-22T05:37:33;1116.3;;;-146.1;100.0
45864;BME280;31579;52.354;16.974;2023-06-22T05:38:37;1112.1;;;-146.1;100.0
45864;BME280;31579;52.354;16.974;2023-06-22T05:39:41;1113.6;;;-146.1;100.0
45864;BME280;31579;52.354;16.974;2023-06-22T05:40:45;1113.6;;;-146.1;100.0
45864;BME280;31579;52.354;16.974;2023-06-22T05:41:50;1109.3;;;-146.1;100.0
45864;BME280;31579;52.354;16.974;2023-06-22T05:42:53;1107.9;;;-146.1;100.0
45864;BME280;31579;52.354;16.974;2023-06-22T05:43:57;1109.8;;;-146.1;100.0
45864;BME280;31579;52.354;16.974;2023-06-22T05:45:01;1108.7;;;-146.1;100.0
45864;BME280;31579;52.354;16.974;2023-06-22T05:46:06;1092.0;;;-146.1;100.0
45864;BME280;31579;52.354;16.974;2023-06-22T05:47:09;1099.9;;;-146.1;100.0
45864;BME280;31579;52.354;16.974;2023-06-22T05:48:13;1098.2;;;-146.1;100.0
45864;BME280;31579;52.354;16.974;2023-06-22T05:49:17;1093.1;;;-146.1;100.0
45864;BME280;31579;52.354;16.974;2023-06-22T05:50:21;1095.2;;;-146.1;100.0
45864;BME280;31579;52.354;16.974;2023-06-22T05:51:26;1083.3;;;-146.1;100.0
45864;BME280;31579;52.354;16.974;2023-06-22T05:52:29;1082.2;;;-146.1;100.0
45864;BME280;31579;52.354;16.974;2023-06-22T05:53:33;1072.2;;;-146.1;100.0
45864;BME280;31579;52.354;16.974;2023-06-22T05:54:37;1075.5;;;-146.1;100.0